createdAt,value
2023-02-11T09:11:45.657Z,57.78
2023-02-11T09:14:22.589Z,58.05
2023-02-11T09:16:58.105Z,66.93
2023-02-11T09:19:26.613Z,64.72
2023-02-11T09:21:53.908Z,64.57
2023-02-11T09:24:21.897Z,62.03
2023-02-11T09:26:50.311Z,67.80
2023-02-11T09:29:24.183Z,53.80
2023-02-11T09:31:52.237Z,60.40
2023-02-11T09:34:20.442Z,59.88
2023-02-11T09:36:54.316Z,55.22
2023-02-11T09:39:29.769Z,50.40
2023-02-11T09:43:04.116Z,59.72
2023-02-11T09:45:34.146Z,58.72
2023-02-11T09:48:16.218Z,63.80
2023-02-11T09:55:43.125Z,61.58
2023-02-11T09:58:10.764Z,62.80
2023-02-11T10:00:44.987Z,59.72
2023-02-11T10:03:38.166Z,65.35
2023-02-11T10:06:41.295Z,59.35
2023-02-11T10:09:32.270Z,54.95
2023-02-11T10:12:12.591Z,58.13
2023-02-11T10:15:06.952Z,65.63
2023-02-11T10:18:04.350Z,59.25
2023-02-11T10:21:02.988Z,59.97
2023-02-11T10:23:36.695Z,54.70
2023-02-11T10:26:03.731Z,63.75
2023-02-11T10:28:34.056Z,67.20
2023-02-11T10:31:20.859Z,64.80
2023-02-11T10:34:07.286Z,55.50
2023-02-11T10:36:37.453Z,59.80
2023-02-11T10:39:23.265Z,65.70
2023-02-11T10:42:02.162Z,63.38
2023-02-11T10:44:43.931Z,67.55
2023-02-11T10:47:21.892Z,68.53
2023-02-11T10:49:49.252Z,68.80
2023-02-11T10:52:25.062Z,61.55
2023-02-11T10:55:17.766Z,75.65
2023-02-11T10:58:00.407Z,59.92
2023-02-11T11:00:42.740Z,63.33
2023-02-11T11:03:24.328Z,69.78
2023-02-11T11:06:03.853Z,67.13
2023-02-11T11:08:51.613Z,70.82
2023-02-11T11:11:26.196Z,67.97
2023-02-11T11:13:52.798Z,66.05
2023-02-11T11:16:36.476Z,74.50
2023-02-11T11:19:09.156Z,72.00
2023-02-11T11:22:06.677Z,67.43
2023-02-11T11:24:44.346Z,72.55
2023-02-11T11:27:25.435Z,66.90
2023-02-11T11:29:56.117Z,65.53
2023-02-11T11:32:28.314Z,66.65
2023-02-11T11:35:00.203Z,72.65
2023-02-11T11:37:33.059Z,66.35
2023-02-11T11:40:13.659Z,63.80
2023-02-11T11:42:40.860Z,65.55
2023-02-11T11:45:19.575Z,69.32
2023-02-11T11:48:14.284Z,64.47
2023-02-11T11:50:52.978Z,65.75
2023-02-11T11:53:52.116Z,64.28
2023-02-11T11:56:26.826Z,65.15
2023-02-11T11:58:54.440Z,55.35
2023-02-11T12:02:11.760Z,63.20
2023-02-11T12:04:53.928Z,65.78
2023-02-11T12:07:40.239Z,69.32
2023-02-11T12:10:21.112Z,64.05
2023-02-11T12:13:05.872Z,67.60
2023-02-11T12:16:26.103Z,63.40
2023-02-11T12:19:29.676Z,65.53
2023-02-11T12:22:09.977Z,69.95
2023-02-11T12:24:49.763Z,65.80
2023-02-11T12:28:31.403Z,70.65
2023-02-11T12:31:15.675Z,59.60
2023-02-11T12:34:18.248Z,70.95
2023-02-11T12:36:54.378Z,66.35
2023-02-11T12:40:01.337Z,68.05
2023-02-11T12:42:59.000Z,69.03
2023-02-11T12:46:00.927Z,63.03
2023-02-11T12:49:01.836Z,74.15
2023-02-11T12:51:56.214Z,64.63
2023-02-11T12:54:40.126Z,73.05
2023-02-11T12:57:26.486Z,69.53
2023-02-11T13:00:19.691Z,66.60
2023-02-11T13:03:34.934Z,64.57
2023-02-11T13:06:12.304Z,67.03
2023-02-11T13:08:50.137Z,60.75
2023-02-11T13:16:22.196Z,62.30
2023-02-11T13:19:13.066Z,60.60
2023-02-11T13:22:21.035Z,62.10
2023-02-11T13:25:17.619Z,62.38
2023-02-11T13:28:25.399Z,61.20
2023-02-11T13:31:02.845Z,60.75
2023-02-11T13:33:45.747Z,58.58
2023-02-11T13:36:16.752Z,61.92
2023-02-11T13:39:03.200Z,70.10
2023-02-11T13:41:52.209Z,70.05
2023-02-11T13:44:26.506Z,57.05
2023-02-11T13:53:57.725Z,61.40
2023-02-11T13:56:46.336Z,62.35
2023-02-11T13:59:25.304Z,62.00
2023-02-11T14:02:23.345Z,60.70
2023-02-11T14:05:24.038Z,58.08
2023-02-11T14:08:28.798Z,67.32
2023-02-11T14:12:12.937Z,54.22
2023-02-11T14:15:07.826Z,51.83
2023-02-11T14:17:35.256Z,52.47
2023-02-11T14:20:36.450Z,54.33
2023-02-11T14:23:04.815Z,62.65
2023-02-11T14:25:32.047Z,53.85
2023-02-11T14:28:07.850Z,52.78
2023-02-11T14:33:43.297Z,52.10
2023-02-11T14:36:52.707Z,54.97
2023-02-11T14:39:25.355Z,55.10
2023-02-11T14:41:52.857Z,55.33
2023-02-11T14:44:28.169Z,61.50
2023-02-11T14:46:56.416Z,55.17
2023-02-11T14:49:37.939Z,51.38
2023-02-11T14:52:18.762Z,59.60
2023-02-11T14:54:48.735Z,51.53
2023-02-11T14:57:19.264Z,58.72
2023-02-11T15:00:06.070Z,61.13
2023-02-11T15:02:37.611Z,62.13
2023-02-11T15:05:29.009Z,63.08
2023-02-11T15:08:00.757Z,60.03
2023-02-11T15:10:36.279Z,55.88
2023-02-11T15:13:05.134Z,61.80
2023-02-11T15:15:33.043Z,66.55
2023-02-11T15:18:02.769Z,58.17
2023-02-11T15:20:33.714Z,64.25
2023-02-11T15:23:09.421Z,60.50
2023-02-11T15:25:45.771Z,62.03
2023-02-11T15:28:31.324Z,61.05
2023-02-11T15:31:03.774Z,62.97
2023-02-11T15:33:32.421Z,61.40
2023-02-11T15:36:03.131Z,61.70
2023-02-11T15:38:30.555Z,63.47
2023-02-11T15:41:01.048Z,60.97
2023-02-11T15:44:00.409Z,61.70
2023-02-11T15:46:36.689Z,59.55
2023-02-11T15:49:04.168Z,58.17
2023-02-11T15:51:39.879Z,58.33
2023-02-11T15:54:18.795Z,70.05
2023-02-11T15:56:49.927Z,62.83
2023-02-11T15:59:25.941Z,63.05
2023-02-11T16:01:54.445Z,66.57
2023-02-11T16:04:26.124Z,64.35
2023-02-11T16:06:55.455Z,64.35
2023-02-11T16:09:32.620Z,74.22
2023-02-11T16:12:04.454Z,68.93
2023-02-11T16:14:37.135Z,61.45
2023-02-11T16:17:12.328Z,66.20
2023-02-11T16:19:51.743Z,65.60
2023-02-11T16:22:24.704Z,72.93
2023-02-11T16:24:54.588Z,69.35
2023-02-11T16:27:37.354Z,69.05
2023-02-11T16:30:05.573Z,69.55
2023-02-11T16:32:32.393Z,81.00
2023-02-11T16:35:01.309Z,76.32
2023-02-11T16:37:28.280Z,77.30
2023-02-11T16:39:56.853Z,75.03
2023-02-11T16:42:23.711Z,70.28
2023-02-11T16:44:50.468Z,79.72
2023-02-11T16:47:26.390Z,70.00
2023-02-11T16:52:21.637Z,78.22
2023-02-11T16:54:48.913Z,74.00
2023-02-11T16:57:23.302Z,76.20
2023-02-11T16:59:50.729Z,72.80
2023-02-11T17:02:27.869Z,76.25
2023-02-11T17:04:58.170Z,71.50
2023-02-11T17:07:25.202Z,75.50
2023-02-11T17:09:52.223Z,77.95
2023-02-11T17:12:19.905Z,80.32
2023-02-11T17:14:46.628Z,74.05
2023-02-11T17:17:14.135Z,80.43
2023-02-11T17:19:40.856Z,83.00
2023-02-11T17:22:07.650Z,83.43
2023-02-11T17:24:34.381Z,78.10
2023-02-11T17:27:01.102Z,80.13
2023-02-11T17:29:27.867Z,83.15
2023-02-11T17:31:54.792Z,85.35
2023-02-11T17:34:22.669Z,73.63
2023-02-11T17:36:49.714Z,90.45
2023-02-11T17:39:16.409Z,81.60
2023-02-11T17:41:43.123Z,86.03
2023-02-11T17:44:12.444Z,89.50
2023-02-11T17:46:39.489Z,76.97
2023-02-11T17:49:06.318Z,84.88
2023-02-11T17:51:37.110Z,73.15
2023-02-11T17:54:08.240Z,80.47
2023-02-11T17:56:36.520Z,83.20
2023-02-11T17:59:04.796Z,86.03
2023-02-11T18:01:34.204Z,81.82
2023-02-11T18:04:01.732Z,92.90
2023-02-11T18:06:33.647Z,75.55
2023-02-11T18:09:02.380Z,78.55
2023-02-11T18:11:31.958Z,89.57
2023-02-11T18:14:00.070Z,82.78
2023-02-11T18:16:28.605Z,82.25
2023-02-11T18:18:58.473Z,85.95
2023-02-11T18:21:25.624Z,88.75
2023-02-11T18:23:52.538Z,77.32
2023-02-11T18:26:21.807Z,80.68
2023-02-11T18:28:48.712Z,77.57
2023-02-11T18:31:15.634Z,81.82
2023-02-11T18:33:42.716Z,79.30
2023-02-11T18:36:15.671Z,84.32
2023-02-11T18:38:46.192Z,81.35
2023-02-11T18:41:14.094Z,82.03
2023-02-11T18:43:41.343Z,74.18
2023-02-11T18:46:12.323Z,84.90
2023-02-11T18:48:39.271Z,86.20
2023-02-11T18:51:14.961Z,78.95
2023-02-11T18:53:43.039Z,78.68
2023-02-11T18:56:16.576Z,85.68
2023-02-11T18:58:43.377Z,79.20
2023-02-11T19:01:22.785Z,78.05
2023-02-11T19:03:50.792Z,85.50
2023-02-11T19:06:21.181Z,83.57
2023-02-11T19:08:48.260Z,82.32
2023-02-11T19:11:18.656Z,83.05
2023-02-11T19:13:49.562Z,81.47
2023-02-11T19:16:19.629Z,86.97
2023-02-11T19:18:46.516Z,77.55
2023-02-11T19:21:13.231Z,80.93
2023-02-11T19:23:40.005Z,86.43
2023-02-11T19:26:06.970Z,76.28
2023-02-11T19:28:36.894Z,78.88
2023-02-11T19:31:09.049Z,77.38
2023-02-11T19:33:36.771Z,81.63
2023-02-11T19:36:07.130Z,85.75
2023-02-11T19:38:34.640Z,78.93
2023-02-11T19:41:01.718Z,81.13
2023-02-11T19:43:28.622Z,75.10
2023-02-11T19:45:58.471Z,86.55
2023-02-11T19:48:25.533Z,83.70
2023-02-11T19:50:52.345Z,77.85
2023-02-11T19:53:19.125Z,86.75
2023-02-11T19:55:45.921Z,77.65
2023-02-11T19:58:12.857Z,79.47
2023-02-11T20:00:39.596Z,91.03
2023-02-11T20:03:06.645Z,72.97
2023-02-11T20:05:33.636Z,80.15
2023-02-11T20:08:00.388Z,82.18
2023-02-11T20:10:27.071Z,87.65
2023-02-11T20:12:54.163Z,86.43
2023-02-11T20:15:21.059Z,86.35
2023-02-11T20:17:47.908Z,82.68
2023-02-11T20:20:14.728Z,79.03
2023-02-11T20:22:41.439Z,86.93
2023-02-11T20:25:08.354Z,79.32
2023-02-11T20:27:35.072Z,83.57
2023-02-11T20:30:01.841Z,92.28
2023-02-11T20:32:30.590Z,82.13
2023-02-11T20:34:58.817Z,89.93
2023-02-11T20:37:25.605Z,87.30
2023-02-11T20:39:52.290Z,83.97
2023-02-11T20:42:19.030Z,85.85
2023-02-11T20:44:45.773Z,83.53
2023-02-11T20:47:12.660Z,78.50
2023-02-11T20:49:39.391Z,85.55
2023-02-11T20:52:08.106Z,90.90
2023-02-11T20:54:34.801Z,92.40
2023-02-11T20:57:02.250Z,86.22
2023-02-11T20:59:29.013Z,91.05
2023-02-11T21:01:56.851Z,91.13
2023-02-11T21:04:30.006Z,85.13
2023-02-11T21:07:00.266Z,84.28
2023-02-11T21:09:32.299Z,90.78
2023-02-11T21:11:59.832Z,84.55
2023-02-11T21:14:28.231Z,84.15
2023-02-11T21:16:55.141Z,85.57
2023-02-11T21:19:22.055Z,85.45
2023-02-11T21:21:49.113Z,87.43
2023-02-11T21:24:15.956Z,86.97
2023-02-11T21:26:43.026Z,86.38
2023-02-11T21:29:09.985Z,87.30
2023-02-11T21:31:37.854Z,85.47
2023-02-11T21:34:05.920Z,91.43
2023-02-11T21:36:32.828Z,90.60
2023-02-11T21:39:01.654Z,89.25
2023-02-11T21:41:28.461Z,83.18
2023-02-11T21:43:55.246Z,85.05
2023-02-11T21:46:22.645Z,80.18
2023-02-11T21:48:52.720Z,79.50
2023-02-11T21:51:23.573Z,86.28
2023-02-11T21:54:01.076Z,87.78
2023-02-11T21:56:30.517Z,82.93
2023-02-11T21:58:59.173Z,83.32
2023-02-11T22:01:33.094Z,87.03
2023-02-11T22:04:00.366Z,75.43
2023-02-11T22:06:32.818Z,80.65
2023-02-11T22:09:05.098Z,76.82
2023-02-11T22:11:31.984Z,79.65
2023-02-11T22:13:59.147Z,83.68
2023-02-11T22:16:27.968Z,84.78
2023-02-11T22:18:58.626Z,87.60
2023-02-11T22:21:27.089Z,80.82
2023-02-11T22:23:55.761Z,74.57
2023-02-11T22:26:26.162Z,80.00
2023-02-11T22:28:53.800Z,72.25
2023-02-11T22:31:25.082Z,76.18
2023-02-11T22:33:52.160Z,83.72
2023-02-11T22:36:27.356Z,71.57
2023-02-11T22:38:54.905Z,73.90
2023-02-11T22:41:23.386Z,76.75
2023-02-11T22:43:50.360Z,73.40
2023-02-11T22:46:19.449Z,70.00
2023-02-11T22:48:47.246Z,73.22
2023-02-11T22:51:21.517Z,75.90
2023-02-11T22:53:59.173Z,84.63
2023-02-11T22:56:27.677Z,71.10
2023-02-11T22:58:59.270Z,71.88
2023-02-11T23:01:26.588Z,67.45
2023-02-11T23:03:57.111Z,75.68
2023-02-11T23:06:24.169Z,73.68
2023-02-11T23:08:51.242Z,78.28
2023-02-11T23:11:23.003Z,87.40
2023-02-11T23:13:51.984Z,75.38
2023-02-11T23:16:25.548Z,78.80
2023-02-11T23:18:53.354Z,73.65
2023-02-11T23:21:27.686Z,74.18
2023-02-11T23:23:57.421Z,71.53
2023-02-11T23:26:25.271Z,73.97
2023-02-11T23:28:52.086Z,76.13
2023-02-11T23:31:34.067Z,73.82
2023-02-11T23:34:01.500Z,71.72
2023-02-11T23:36:28.913Z,72.82
2023-02-11T23:38:55.840Z,85.63
2023-02-11T23:41:22.744Z,73.28
2023-02-11T23:43:55.730Z,94.40
2023-02-11T23:46:25.031Z,81.25
2023-02-11T23:48:52.452Z,87.63
2023-02-11T23:51:20.107Z,83.72
2023-02-11T23:53:49.258Z,81.00
2023-02-11T23:56:22.648Z,85.75
2023-02-11T23:58:51.441Z,79.57
